sensor_id;sensor_type;location;lat;lon;timestamp;temperature;humidity
1259;DHT22;619;51.472;6.628;2023-04-01T00:02:18;16.20;85.60
1259;DHT22;619;51.472;6.628;2023-04-01T00:04:45;16.10;85.70
1259;DHT22;619;51.472;6.628;2023-04-01T00:07:16;16.10;85.80
1259;DHT22;619;51.472;6.628;2023-04-01T00:09:41;16.10;85.80
1259;DHT22;619;51.472;6.628;2023-04-01T00:12:09;16.10;85.80
1259;DHT22;619;51.472;6.628;2023-04-01T00:14:35;16.10;85.70
1259;DHT22;619;51.472;6.628;2023-04-01T00:17:02;16.10;85.70
1259;DHT22;619;51.472;6.628;2023-04-01T00:19:28;16.00;85.60
1259;DHT22;619;51.472;6.628;2023-04-01T00:21:53;16.00;85.70
1259;DHT22;619;51.472;6.628;2023-04-01T00:24:19;16.10;85.80
1259;DHT22;619;51.472;6.628;2023-04-01T00:26:47;16.10;85.70
1259;DHT22;619;51.472;6.628;2023-04-01T00:29:14;16.10;85.70
1259;DHT22;619;51.472;6.628;2023-04-01T00:31:40;16.10;85.60
1259;DHT22;619;51.472;6.628;2023-04-01T00:34:09;16.10;85.40
1259;DHT22;619;51.472;6.628;2023-04-01T00:36:37;16.10;85.40
1259;DHT22;619;51.472;6.628;2023-04-01T00:39:05;16.10;85.20
1259;DHT22;619;51.472;6.628;2023-04-01T00:41:31;16.10;85.20
1259;DHT22;619;51.472;6.628;2023-04-01T00:44:20;16.10;85.30
1259;DHT22;619;51.472;6.628;2023-04-01T00:46:49;16.00;85.60
1259;DHT22;619;51.472;6.628;2023-04-01T00:49:17;16.00;85.80
1259;DHT22;619;51.472;6.628;2023-04-01T00:51:48;16.00;85.90
1259;DHT22;619;51.472;6.628;2023-04-01T00:54:16;16.00;86.00
1259;DHT22;619;51.472;6.628;2023-04-01T00:56:50;16.00;86.10
1259;DHT22;619;51.472;6.628;2023-04-01T00:59:24;16.00;86.80
1259;DHT22;619;51.472;6.628;2023-04-01T01:01:53;16.00;86.10
1259;DHT22;619;51.472;6.628;2023-04-01T01:04:24;16.10;86.20
1259;DHT22;619;51.472;6.628;2023-04-01T01:10:18;16.10;86.80
1259;DHT22;619;51.472;6.628;2023-04-01T01:13:15;16.00;86.00
1259;DHT22;619;51.472;6.628;2023-04-01T01:16:25;16.00;86.10
1259;DHT22;619;51.472;6.628;2023-04-01T01:24:50;16.10;86.00
1259;DHT22;619;51.472;6.628;2023-04-01T01:27:19;16.10;85.90
1259;DHT22;619;51.472;6.628;2023-04-01T01:32:54;16.10;85.60
1259;DHT22;619;51.472;6.628;2023-04-01T01:38:02;16.00;85.50
1259;DHT22;619;51.472;6.628;2023-04-01T01:40:30;16.10;85.60
1259;DHT22;619;51.472;6.628;2023-04-01T01:43:04;16.00;85.50
1259;DHT22;619;51.472;6.628;2023-04-01T01:45:32;16.00;85.40
1259;DHT22;619;51.472;6.628;2023-04-01T01:48:00;16.10;85.40
1259;DHT22;619;51.472;6.628;2023-04-01T01:50:30;16.10;85.30
1259;DHT22;619;51.472;6.628;2023-04-01T01:53:08;16.10;85.20
1259;DHT22;619;51.472;6.628;2023-04-01T01:55:43;16.10;85.20
1259;DHT22;619;51.472;6.628;2023-04-01T01:58:17;16.00;85.00
1259;DHT22;619;51.472;6.628;2023-04-01T02:01:03;16.00;85.10
1259;DHT22;619;51.472;6.628;2023-04-01T02:03:34;16.10;85.10
1259;DHT22;619;51.472;6.628;2023-04-01T02:06:03;16.00;85.00
1259;DHT22;619;51.472;6.628;2023-04-01T02:08:34;16.10;85.10
1259;DHT22;619;51.472;6.628;2023-04-01T02:11:07;16.10;85.10
1259;DHT22;619;51.472;6.628;2023-04-01T02:16:13;16.00;85.00
1259;DHT22;619;51.472;6.628;2023-04-01T02:18:41;16.10;85.10
1259;DHT22;619;51.472;6.628;2023-04-01T02:21:13;16.10;85.10
1259;DHT22;619;51.472;6.628;2023-04-01T02:23:40;16.00;85.20
1259;DHT22;619;51.472;6.628;2023-04-01T02:26:09;16.00;85.30
1259;DHT22;619;51.472;6.628;2023-04-01T02:28:40;16.00;85.50
1259;DHT22;619;51.472;6.628;2023-04-01T02:31:13;16.00;85.60
1259;DHT22;619;51.472;6.628;2023-04-01T02:33:42;16.00;85.60
1259;DHT22;619;51.472;6.628;2023-04-01T02:36:13;16.00;85.70
1259;DHT22;619;51.472;6.628;2023-04-01T02:38:45;16.00;85.90
1259;DHT22;619;51.472;6.628;2023-04-01T02:41:14;16.00;85.90
1259;DHT22;619;51.472;6.628;2023-04-01T02:43:42;16.00;86.00
1259;DHT22;619;51.472;6.628;2023-04-01T02:46:10;16.00;86.00
1259;DHT22;619;51.472;6.628;2023-04-01T02:48:38;16.00;86.10
1259;DHT22;619;51.472;6.628;2023-04-01T02:51:07;16.00;86.20
1259;DHT22;619;51.472;6.628;2023-04-01T02:53:33;16.00;86.10
1259;DHT22;619;51.472;6.628;2023-04-01T02:56:03;16.10;86.20
1259;DHT22;619;51.472;6.628;2023-04-01T02:58:31;16.10;86.20
1259;DHT22;619;51.472;6.628;2023-04-01T03:01:01;16.10;86.30
1259;DHT22;619;51.472;6.628;2023-04-01T03:03:29;16.10;86.30
1259;DHT22;619;51.472;6.628;2023-04-01T03:05:55;16.10;86.20
1259;DHT22;619;51.472;6.628;2023-04-01T03:08:21;16.10;86.30
1259;DHT22;619;51.472;6.628;2023-04-01T03:10:50;16.10;86.40
1259;DHT22;619;51.472;6.628;2023-04-01T03:13:18;16.10;86.50
1259;DHT22;619;51.472;6.628;2023-04-01T03:15:43;16.20;86.60
1259;DHT22;619;51.472;6.628;2023-04-01T03:18:11;16.10;86.40
1259;DHT22;619;51.472;6.628;2023-04-01T03:20:39;16.10;86.60
1259;DHT22;619;51.472;6.628;2023-04-01T03:23:05;16.10;86.70
1259;DHT22;619;51.472;6.628;2023-04-01T03:25:32;16.10;86.70
1259;DHT22;619;51.472;6.628;2023-04-01T03:28:01;16.10;86.70
1259;DHT22;619;51.472;6.628;2023-04-01T03:30:32;16.10;86.70
1259;DHT22;619;51.472;6.628;2023-04-01T03:33:00;16.10;86.70
1259;DHT22;619;51.472;6.628;2023-04-01T03:35:29;16.10;86.60
1259;DHT22;619;51.472;6.628;2023-04-01T03:37:59;16.10;86.60
1259;DHT22;619;51.472;6.628;2023-04-01T03:40:27;16.20;86.70
1259;DHT22;619;51.472;6.628;2023-04-01T03:42:55;16.10;86.50
1259;DHT22;619;51.472;6.628;2023-04-01T03:45:21;16.20;86.50
1259;DHT22;619;51.472;6.628;2023-04-01T03:47:47;16.20;86.40
1259;DHT22;619;51.472;6.628;2023-04-01T03:50:12;16.20;86.40
1259;DHT22;619;51.472;6.628;2023-04-01T03:52:38;16.20;86.40
1259;DHT22;619;51.472;6.628;2023-04-01T03:55:07;16.20;86.30
1259;DHT22;619;51.472;6.628;2023-04-01T03:57:33;16.10;86.30
1259;DHT22;619;51.472;6.628;2023-04-01T04:00:01;16.10;86.40
1259;DHT22;619;51.472;6.628;2023-04-01T04:02:31;16.10;86.60
1259;DHT22;619;51.472;6.628;2023-04-01T04:04:59;16.10;86.60
1259;DHT22;619;51.472;6.628;2023-04-01T04:07:27;16.10;86.60
1259;DHT22;619;51.472;6.628;2023-04-01T04:09:57;16.10;86.60
1259;DHT22;619;51.472;6.628;2023-04-01T04:12:23;16.20;86.60
1259;DHT22;619;51.472;6.628;2023-04-01T04:14:49;16.20;86.50
1259;DHT22;619;51.472;6.628;2023-04-01T04:17:18;16.20;86.50
1259;DHT22;619;51.472;6.628;2023-04-01T04:19:47;16.20;86.50
1259;DHT22;619;51.472;6.628;2023-04-01T04:22:14;16.20;86.50
1259;DHT22;619;51.472;6.628;2023-04-01T04:24:40;16.20;86.50
1259;DHT22;619;51.472;6.628;2023-04-01T04:27:06;16.20;86.40
1259;DHT22;619;51.472;6.628;2023-04-01T04:29:33;16.20;86.40
1259;DHT22;619;51.472;6.628;2023-04-01T04:32:06;16.20;86.40
1259;DHT22;619;51.472;6.628;2023-04-01T04:34:32;16.20;86.50
1259;DHT22;619;51.472;6.628;2023-04-01T04:36:57;16.20;86.50
1259;DHT22;619;51.472;6.628;2023-04-01T04:39:25;16.20;86.50
1259;DHT22;619;51.472;6.628;2023-04-01T04:41:53;16.20;86.50
1259;DHT22;619;51.472;6.628;2023-04-01T04:44:24;16.20;86.50
1259;DHT22;619;51.472;6.628;2023-04-01T04:46:52;16.30;86.40
1259;DHT22;619;51.472;6.628;2023-04-01T04:49:20;16.30;86.30
1259;DHT22;619;51.472;6.628;2023-04-01T04:51:46;16.30;86.30
1259;DHT22;619;51.472;6.628;2023-04-01T04:54:14;16.30;86.30
1259;DHT22;619;51.472;6.628;2023-04-01T04:56:40;16.30;86.40
1259;DHT22;619;51.472;6.628;2023-04-01T04:59:08;16.30;86.30
1259;DHT22;619;51.472;6.628;2023-04-01T05:01:38;16.20;86.20
1259;DHT22;619;51.472;6.628;2023-04-01T05:04:08;16.20;86.20
1259;DHT22;619;51.472;6.628;2023-04-01T05:06:34;16.20;86.20
1259;DHT22;619;51.472;6.628;2023-04-01T05:09:00;16.20;86.40
1259;DHT22;619;51.472;6.628;2023-04-01T05:11:27;16.20;86.30
1259;DHT22;619;51.472;6.628;2023-04-01T05:13:53;16.30;86.40
1259;DHT22;619;51.472;6.628;2023-04-01T05:16:21;16.30;86.40
1259;DHT22;619;51.472;6.628;2023-04-01T05:18:49;16.20;86.30
1259;DHT22;619;51.472;6.628;2023-04-01T05:21:17;16.20;86.40
1259;DHT22;619;51.472;6.628;2023-04-01T05:23:45;16.30;86.60
1259;DHT22;619;51.472;6.628;2023-04-01T05:26:13;16.20;86.50
1259;DHT22;619;51.472;6.628;2023-04-01T05:28:44;16.20;86.50
1259;DHT22;619;51.472;6.628;2023-04-01T05:31:11;16.30;86.60
1259;DHT22;619;51.472;6.628;2023-04-01T05:33:44;16.20;86.60
1259;DHT22;619;51.472;6.628;2023-04-01T05:36:12;16.20;86.60
1259;DHT22;619;51.472;6.628;2023-04-01T05:38:40;16.20;86.70
1259;DHT22;619;51.472;6.628;2023-04-01T05:41:07;16.20;86.60
1259;DHT22;619;51.472;6.628;2023-04-01T05:43:36;16.20;86.60
1259;DHT22;619;51.472;6.628;2023-04-01T05:46:01;16.20;86.60
1259;DHT22;619;51.472;6.628;2023-04-01T05:48:30;16.20;86.70
1259;DHT22;619;51.472;6.628;2023-04-01T05:50:56;16.20;86.70
1259;DHT22;619;51.472;6.628;2023-04-01T05:53:21;16.20;86.70
1259;DHT22;619;51.472;6.628;2023-04-01T05:55:52;16.20;86.70
1259;DHT22;619;51.472;6.628;2023-04-01T05:58:22;16.20;86.70
1259;DHT22;619;51.472;6.628;2023-04-01T06:00:48;16.20;86.60
1259;DHT22;619;51.472;6.628;2023-04-01T06:03:16;16.30;86.70
1259;DHT22;619;51.472;6.628;2023-04-01T06:05:43;16.20;86.70
1259;DHT22;619;51.472;6.628;2023-04-01T06:08:17;16.20;86.80
1259;DHT22;619;51.472;6.628;2023-04-01T06:14:01;16.20;86.80
1259;DHT22;619;51.472;6.628;2023-04-01T06:19:31;16.20;86.70
1259;DHT22;619;51.472;6.628;2023-04-01T06:30:00;16.10;86.90
1259;DHT22;619;51.472;6.628;2023-04-01T06:32:59;16.10;86.90
1259;DHT22;619;51.472;6.628;2023-04-01T06:35:35;16.10;86.90
1259;DHT22;619;51.472;6.628;2023-04-01T06:44:08;16.10;86.90
1259;DHT22;619;51.472;6.628;2023-04-01T06:46:58;16.00;86.80
1259;DHT22;619;51.472;6.628;2023-04-01T06:57:41;16.20;86.90
1259;DHT22;619;51.472;6.628;2023-04-01T07:00:16;16.10;86.90
1259;DHT22;619;51.472;6.628;2023-04-01T07:03:40;16.10;86.90
1259;DHT22;619;51.472;6.628;2023-04-01T07:05:42;16.10;86.90
1259;DHT22;619;51.472;6.628;2023-04-01T07:08:21;16.10;87.00
1259;DHT22;619;51.472;6.628;2023-04-01T07:11:04;16.10;86.80
1259;DHT22;619;51.472;6.628;2023-04-01T07:16:20;15.90;87.00
1259;DHT22;619;51.472;6.628;2023-04-01T07:21:40;16.00;87.30
1259;DHT22;619;51.472;6.628;2023-04-01T07:24:16;16.00;87.30
1259;DHT22;619;51.472;6.628;2023-04-01T07:26:42;16.00;87.10
1259;DHT22;619;51.472;6.628;2023-04-01T07:29:13;16.00;87.10
1259;DHT22;619;51.472;6.628;2023-04-01T07:34:41;16.00;87.20
1259;DHT22;619;51.472;6.628;2023-04-01T07:43:13;16.00;87.40
1259;DHT22;619;51.472;6.628;2023-04-01T07:54:09;16.00;87.50
1259;DHT22;619;51.472;6.628;2023-04-01T07:56:49;16.00;87.70
1259;DHT22;619;51.472;6.628;2023-04-01T08:06:12;16.10;87.80
1259;DHT22;619;51.472;6.628;2023-04-01T08:13:45;16.20;87.80
1259;DHT22;619;51.472;6.628;2023-04-01T08:22:03;16.20;87.40
1259;DHT22;619;51.472;6.628;2023-04-01T08:24:37;16.20;87.40
1259;DHT22;619;51.472;6.628;2023-04-01T08:27:31;16.20;87.50
1259;DHT22;619;51.472;6.628;2023-04-01T08:33:14;16.30;87.50
1259;DHT22;619;51.472;6.628;2023-04-01T08:35:58;16.40;87.40
1259;DHT22;619;51.472;6.628;2023-04-01T08:38:29;16.40;87.20
1259;DHT22;619;51.472;6.628;2023-04-01T08:46:55;16.50;86.70
1259;DHT22;619;51.472;6.628;2023-04-01T08:49:32;16.60;86.90
1259;DHT22;619;51.472;6.628;2023-04-01T08:52:37;16.60;86.80
1259;DHT22;619;51.472;6.628;2023-04-01T09:00:42;16.90;86.80
1259;DHT22;619;51.472;6.628;2023-04-01T09:14:26;17.30;86.40
1259;DHT22;619;51.472;6.628;2023-04-01T09:23:26;17.50;84.80
1259;DHT22;619;51.472;6.628;2023-04-01T09:40:15;17.50;84.70
1259;DHT22;619;51.472;6.628;2023-04-01T09:51:09;17.30;85.10
1259;DHT22;619;51.472;6.628;2023-04-01T09:59:29;17.50;85.40
1259;DHT22;619;51.472;6.628;2023-04-01T10:21:20;17.40;85.80
1259;DHT22;619;51.472;6.628;2023-04-01T10:38:10;17.30;86.00
1259;DHT22;619;51.472;6.628;2023-04-01T10:57:37;17.30;85.90
1259;DHT22;619;51.472;6.628;2023-04-01T11:17:27;17.30;86.60
1259;DHT22;619;51.472;6.628;2023-04-01T11:20:22;17.30;86.30
1259;DHT22;619;51.472;6.628;2023-04-01T11:33:28;17.60;85.80
1259;DHT22;619;51.472;6.628;2023-04-01T11:39:05;17.70;86.20
1259;DHT22;619;51.472;6.628;2023-04-01T11:41:56;17.70;86.00
1259;DHT22;619;51.472;6.628;2023-04-01T11:44:29;17.70;85.40
1259;DHT22;619;51.472;6.628;2023-04-01T11:50:20;17.90;85.20
1259;DHT22;619;51.472;6.628;2023-04-01T11:58:49;18.10;85.30
1259;DHT22;619;51.472;6.628;2023-04-01T12:01:39;18.30;85.40
1259;DHT22;619;51.472;6.628;2023-04-01T12:07:45;18.30;85.00
1259;DHT22;619;51.472;6.628;2023-04-01T12:10:25;18.40;85.00
1259;DHT22;619;51.472;6.628;2023-04-01T12:30:52;18.30;83.10
1259;DHT22;619;51.472;6.628;2023-04-01T12:33:04;18.20;83.50
1259;DHT22;619;51.472;6.628;2023-04-01T12:38:36;18.10;84.00
1259;DHT22;619;51.472;6.628;2023-04-01T12:41:08;18.00;84.30
1259;DHT22;619;51.472;6.628;2023-04-01T12:51:41;17.70;84.90
1259;DHT22;619;51.472;6.628;2023-04-01T12:57:20;17.60;85.30
1259;DHT22;619;51.472;6.628;2023-04-01T13:02:59;17.50;85.90
1259;DHT22;619;51.472;6.628;2023-04-01T13:13:53;17.30;87.20
1259;DHT22;619;51.472;6.628;2023-04-01T13:16:39;17.30;87.60
1259;DHT22;619;51.472;6.628;2023-04-01T13:24:44;17.40;87.90
1259;DHT22;619;51.472;6.628;2023-04-01T13:27:14;17.40;87.80
1259;DHT22;619;51.472;6.628;2023-04-01T13:50:08;17.20;88.30
1259;DHT22;619;51.472;6.628;2023-04-01T14:05:44;17.20;88.80
1259;DHT22;619;51.472;6.628;2023-04-01T14:10:56;17.20;88.70
1259;DHT22;619;51.472;6.628;2023-04-01T14:16:20;17.20;88.80
1259;DHT22;619;51.472;6.628;2023-04-01T14:24:42;17.20;88.70
1259;DHT22;619;51.472;6.628;2023-04-01T14:49:22;17.20;88.30
1259;DHT22;619;51.472;6.628;2023-04-01T14:51:54;17.30;88.30
1259;DHT22;619;51.472;6.628;2023-04-01T14:54:34;17.30;88.10
1259;DHT22;619;51.472;6.628;2023-04-01T14:57:16;17.40;88.10
1259;DHT22;619;51.472;6.628;2023-04-01T15:00:09;17.40;88.00
1259;DHT22;619;51.472;6.628;2023-04-01T15:05:16;17.40;87.90
1259;DHT22;619;51.472;6.628;2023-04-01T15:13:14;17.40;88.00
1259;DHT22;619;51.472;6.628;2023-04-01T15:15:50;17.40;88.90
1259;DHT22;619;51.472;6.628;2023-04-01T15:19:12;17.40;88.30
1259;DHT22;619;51.472;6.628;2023-04-01T15:24:21;17.40;88.30
1259;DHT22;619;51.472;6.628;2023-04-01T15:43:22;17.30;88.40
1259;DHT22;619;51.472;6.628;2023-04-01T15:52:01;17.40;88.70
1259;DHT22;619;51.472;6.628;2023-04-01T16:00:31;17.50;88.40
1259;DHT22;619;51.472;6.628;2023-04-01T16:06:21;17.60;88.00
1259;DHT22;619;51.472;6.628;2023-04-01T16:19:41;17.70;87.40
1259;DHT22;619;51.472;6.628;2023-04-01T16:22:44;17.70;87.40
1259;DHT22;619;51.472;6.628;2023-04-01T16:25:29;17.70;87.10
1259;DHT22;619;51.472;6.628;2023-04-01T16:41:57;17.50;87.30
1259;DHT22;619;51.472;6.628;2023-04-01T16:44:56;17.40;87.20
1259;DHT22;619;51.472;6.628;2023-04-01T16:47:31;17.50;87.20
1259;DHT22;619;51.472;6.628;2023-04-01T16:50:15;17.40;87.20
1259;DHT22;619;51.472;6.628;2023-04-01T16:53:09;17.40;87.40
1259;DHT22;619;51.472;6.628;2023-04-01T16:58:24;17.30;87.60
1259;DHT22;619;51.472;6.628;2023-04-01T17:01:07;17.30;87.60
1259;DHT22;619;51.472;6.628;2023-04-01T17:03:51;17.30;87.50
1259;DHT22;619;51.472;6.628;2023-04-01T17:11:49;17.30;87.60
1259;DHT22;619;51.472;6.628;2023-04-01T17:20:12;17.20;87.70
1259;DHT22;619;51.472;6.628;2023-04-01T17:23:11;17.30;87.80
1259;DHT22;619;51.472;6.628;2023-04-01T17:36:58;17.30;87.70
1259;DHT22;619;51.472;6.628;2023-04-01T17:42:22;17.30;87.80
1259;DHT22;619;51.472;6.628;2023-04-01T17:45:30;17.20;87.60
1259;DHT22;619;51.472;6.628;2023-04-01T17:55:59;17.10;87.80
1259;DHT22;619;51.472;6.628;2023-04-01T17:58:40;17.10;87.90
1259;DHT22;619;51.472;6.628;2023-04-01T18:06:53;17.10;87.90
1259;DHT22;619;51.472;6.628;2023-04-01T18:09:38;17.00;87.90
1259;DHT22;619;51.472;6.628;2023-04-01T18:12:31;17.00;88.00
1259;DHT22;619;51.472;6.628;2023-04-01T18:23:43;17.00;88.40
1259;DHT22;619;51.472;6.628;2023-04-01T18:26:19;16.90;88.30
1259;DHT22;619;51.472;6.628;2023-04-01T18:31:42;16.90;88.60
1259;DHT22;619;51.472;6.628;2023-04-01T18:34:17;16.90;88.70
1259;DHT22;619;51.472;6.628;2023-04-01T18:36:55;16.90;88.70
1259;DHT22;619;51.472;6.628;2023-04-01T18:39:45;16.90;88.70
1259;DHT22;619;51.472;6.628;2023-04-01T18:42:30;16.90;88.90
1259;DHT22;619;51.472;6.628;2023-04-01T18:45:17;16.80;88.90
1259;DHT22;619;51.472;6.628;2023-04-01T18:50:38;16.80;89.10
1259;DHT22;619;51.472;6.628;2023-04-01T18:53:15;16.90;89.10
1259;DHT22;619;51.472;6.628;2023-04-01T18:55:49;16.90;89.00
1259;DHT22;619;51.472;6.628;2023-04-01T19:04:09;16.80;89.50
1259;DHT22;619;51.472;6.628;2023-04-01T19:09:23;16.70;89.80
1259;DHT22;619;51.472;6.628;2023-04-01T19:12:30;16.70;89.80
1259;DHT22;619;51.472;6.628;2023-04-01T19:18:22;16.50;89.50
1259;DHT22;619;51.472;6.628;2023-04-01T19:20:58;16.50;89.50
1259;DHT22;619;51.472;6.628;2023-04-01T19:26:37;16.40;89.40
1259;DHT22;619;51.472;6.628;2023-04-01T19:38:04;16.40;89.20
1259;DHT22;619;51.472;6.628;2023-04-01T19:46:01;16.20;89.00
1259;DHT22;619;51.472;6.628;2023-04-01T20:11:51;16.10;88.40
1259;DHT22;619;51.472;6.628;2023-04-01T20:25:53;15.70;88.20
1259;DHT22;619;51.472;6.628;2023-04-01T20:28:20;15.60;88.60
1259;DHT22;619;51.472;6.628;2023-04-01T20:47:14;15.40;88.50
1259;DHT22;619;51.472;6.628;2023-04-01T20:49:53;15.40;87.70
1259;DHT22;619;51.472;6.628;2023-04-01T20:52:25;15.40;88.10
1259;DHT22;619;51.472;6.628;2023-04-01T21:25:21;14.90;87.60
1259;DHT22;619;51.472;6.628;2023-04-01T21:30:29;14.90;87.40
1259;DHT22;619;51.472;6.628;2023-04-01T21:44:15;14.70;87.40
1259;DHT22;619;51.472;6.628;2023-04-01T21:57:59;14.70;87.50
1259;DHT22;619;51.472;6.628;2023-04-01T22:06:45;14.50;87.00
1259;DHT22;619;51.472;6.628;2023-04-01T22:12:40;14.30;87.10
1259;DHT22;619;51.472;6.628;2023-04-01T22:20:42;14.20;87.20
1259;DHT22;619;51.472;6.628;2023-04-01T22:26:05;14.10;87.60
1259;DHT22;619;51.472;6.628;2023-04-01T22:28:45;14.10;87.90
1259;DHT22;619;51.472;6.628;2023-04-01T22:31:27;14.10;88.00
1259;DHT22;619;51.472;6.628;2023-04-01T22:34:00;14.10;87.60
1259;DHT22;619;51.472;6.628;2023-04-01T22:42:19;14.00;86.90
1259;DHT22;619;51.472;6.628;2023-04-01T22:48:30;13.80;86.90
1259;DHT22;619;51.472;6.628;2023-04-01T22:56:37;13.60;87.40
1259;DHT22;619;51.472;6.628;2023-04-01T22:59:14;13.60;87.60
1259;DHT22;619;51.472;6.628;2023-04-01T23:02:09;13.70;87.80
1259;DHT22;619;51.472;6.628;2023-04-01T23:04:39;13.70;87.60
1259;DHT22;619;51.472;6.628;2023-04-01T23:10:27;13.60;87.20
1259;DHT22;619;51.472;6.628;2023-04-01T23:12:59;13.60;87.40
1259;DHT22;619;51.472;6.628;2023-04-01T23:15:30;13.50;87.10
1259;DHT22;619;51.472;6.628;2023-04-01T23:26:13;13.00;88.70
1259;DHT22;619;51.472;6.628;2023-04-01T23:28:51;13.00;88.80
1259;DHT22;619;51.472;6.628;2023-04-01T23:33:57;12.80;88.70
1259;DHT22;619;51.472;6.628;2023-04-01T23:36:23;12.70;88.70
1259;DHT22;619;51.472;6.628;2023-04-01T23:38:50;12.70;89.00
1259;DHT22;619;51.472;6.628;2023-04-01T23:41:24;12.80;89.30
1259;DHT22;619;51.472;6.628;2023-04-01T23:44:11;12.80;89.10
1259;DHT22;619;51.472;6.628;2023-04-01T23:46:39;12.90;89.20
1259;DHT22;619;51.472;6.628;2023-04-01T23:49:13;13.10;89.00
1259;DHT22;619;51.472;6.628;2023-04-01T23:51:52;13.10;88.90
1259;DHT22;619;51.472;6.628;2023-04-01T23:54:31;13.10;88.30
1259;DHT22;619;51.472;6.628;2023-04-01T23:56:57;13.10;88.30
1259;DHT22;619;51.472;6.628;2023-04-01T23:59:31;13.00;88.30
